createdAt,value
2018-03-04T00:01:45.752Z,1.91
2018-03-04T00:04:14.010Z,2.12
2018-03-04T00:06:43.040Z,1.79
2018-03-04T00:09:11.296Z,1.65
2018-03-04T00:11:40.327Z,1.85
2018-03-04T00:14:08.579Z,1.97
2018-03-04T00:16:36.857Z,2.06
2018-03-04T00:19:05.103Z,1.93
2018-03-04T00:21:33.372Z,2.28
2018-03-04T00:24:01.631Z,1.78
2018-03-04T00:26:29.895Z,2.12
2018-03-04T00:28:58.167Z,2.38
2018-03-04T00:31:26.438Z,2.58
2018-03-04T00:33:54.683Z,2.43
2018-03-04T00:36:22.968Z,2.63
2018-03-04T00:38:51.228Z,2.66
2018-03-04T00:41:19.487Z,2.49
2018-03-04T00:43:47.755Z,2.34
2018-03-04T00:46:16.780Z,2.35
2018-03-04T00:48:45.057Z,2.55
2018-03-04T00:51:13.314Z,2.76
2018-03-04T00:53:41.583Z,2.78
2018-03-04T00:56:09.839Z,2.91
2018-03-04T00:58:38.107Z,2.93
2018-03-04T01:01:06.368Z,3.09
2018-03-04T01:03:34.643Z,3.11
2018-03-04T01:06:02.903Z,3.13
2018-03-04T01:08:31.174Z,3.16
2018-03-04T01:10:59.473Z,3.11
2018-03-04T01:13:27.744Z,3.17
2018-03-04T01:15:56.003Z,3.23
2018-03-04T01:18:24.282Z,3.10
2018-03-04T01:20:52.539Z,3.06
2018-03-04T01:23:20.811Z,2.93
2018-03-04T01:25:49.080Z,2.91
2018-03-04T01:28:17.351Z,2.62
2018-03-04T01:30:46.380Z,2.30
2018-03-04T01:33:14.652Z,2.50
2018-03-04T01:35:43.671Z,2.47
2018-03-04T01:38:11.944Z,2.30
2018-03-04T01:40:41.720Z,2.34
2018-03-04T01:43:09.987Z,2.24
2018-03-04T01:45:38.239Z,2.38
2018-03-04T01:48:07.290Z,2.41
2018-03-04T01:50:35.557Z,2.17
2018-03-04T01:53:03.827Z,2.30
2018-03-04T01:55:32.863Z,2.51
2018-03-04T01:58:01.119Z,2.55
2018-03-04T02:00:30.161Z,2.71
2018-03-04T02:02:58.415Z,2.66
2018-03-04T02:05:27.447Z,2.44
2018-03-04T02:07:55.703Z,2.35
2018-03-04T02:10:25.756Z,2.62
2018-03-04T02:12:54.012Z,2.59
2018-03-04T02:15:22.279Z,2.46
2018-03-04T02:17:50.536Z,2.40
2018-03-04T02:20:18.803Z,2.52
2018-03-04T02:22:47.059Z,2.51
2018-03-04T02:25:15.331Z,2.58
2018-03-04T02:27:43.584Z,2.66
2018-03-04T02:30:11.856Z,2.84
2018-03-04T02:32:40.112Z,2.72
2018-03-04T02:35:10.381Z,2.81
2018-03-04T02:37:38.636Z,2.97
2018-03-04T02:40:06.903Z,2.94
2018-03-04T02:42:35.163Z,2.89
2018-03-04T02:45:03.434Z,2.47
2018-03-04T02:47:31.692Z,2.80
2018-03-04T02:49:59.958Z,2.61
2018-03-04T02:52:28.219Z,2.89
2018-03-04T02:54:56.492Z,3.01
2018-03-04T02:57:24.752Z,2.25
2018-03-04T02:59:53.811Z,2.15
2018-03-04T03:02:22.063Z,2.43
2018-03-04T03:04:50.325Z,2.60
2018-03-04T03:07:18.591Z,2.08
2018-03-04T03:09:46.851Z,2.00
2018-03-04T03:12:15.118Z,2.48
2018-03-04T03:14:43.370Z,2.35
2018-03-04T03:17:11.638Z,2.61
2018-03-04T03:19:40.663Z,2.91
2018-03-04T03:22:08.984Z,2.88
2018-03-04T03:24:37.251Z,3.08
2018-03-04T03:27:06.292Z,3.07
2018-03-04T03:29:34.554Z,3.32
2018-03-04T03:32:03.587Z,2.82
2018-03-04T03:34:31.840Z,2.84
2018-03-04T03:37:00.880Z,2.70
2018-03-04T03:39:29.139Z,2.77
2018-03-04T03:41:58.171Z,2.80
2018-03-04T03:44:26.422Z,2.05
2018-03-04T03:46:54.695Z,1.77
2018-03-04T03:49:22.955Z,1.82
2018-03-04T03:51:51.226Z,2.25
2018-03-04T03:54:19.487Z,2.16
2018-03-04T03:56:48.516Z,2.34
2018-03-04T03:59:16.776Z,2.53
2018-03-04T04:01:45.812Z,2.02
2018-03-04T04:04:14.079Z,2.27
2018-03-04T04:06:44.020Z,2.20
2018-03-04T04:09:12.284Z,2.24
2018-03-04T04:11:40.556Z,2.55
2018-03-04T04:14:08.811Z,2.75
2018-03-04T04:16:37.080Z,2.60
2018-03-04T04:19:05.348Z,3.02
2018-03-04T04:21:34.387Z,2.85
2018-03-04T04:24:02.643Z,2.83
2018-03-04T04:26:31.680Z,2.42
2018-03-04T04:28:59.939Z,1.97
2018-03-04T04:31:28.968Z,2.39
2018-03-04T04:33:57.226Z,2.36
2018-03-04T04:36:26.261Z,2.90
2018-03-04T04:38:54.515Z,3.14
2018-03-04T04:41:22.787Z,3.10
2018-03-04T04:43:51.044Z,3.21
2018-03-04T04:46:19.322Z,3.07
2018-03-04T04:48:47.596Z,3.13
2018-03-04T04:51:15.859Z,2.57
2018-03-04T04:53:44.887Z,2.65
2018-03-04T04:56:13.165Z,2.41
2018-03-04T04:58:42.183Z,2.10
2018-03-04T05:01:10.447Z,2.27
2018-03-04T05:03:38.703Z,1.92
2018-03-04T05:06:06.979Z,1.66
2018-03-04T05:08:35.235Z,1.74
2018-03-04T05:11:03.499Z,1.94
2018-03-04T05:13:31.756Z,2.37
2018-03-04T05:16:00.027Z,2.52
2018-03-04T05:18:28.283Z,2.50
2018-03-04T05:20:57.319Z,2.54
2018-03-04T05:23:25.579Z,2.67
2018-03-04T05:25:53.843Z,2.81
2018-03-04T05:28:22.102Z,3.02
2018-03-04T05:30:50.367Z,2.62
2018-03-04T05:33:18.631Z,3.20
2018-03-04T05:35:46.887Z,2.83
2018-03-04T05:38:15.178Z,2.55
2018-03-04T05:40:43.436Z,2.76
2018-03-04T05:43:11.709Z,2.89
2018-03-04T05:45:39.959Z,2.94
2018-03-04T05:48:08.998Z,2.96
2018-03-04T05:50:37.263Z,2.97
2018-03-04T05:53:05.534Z,2.90
2018-03-04T05:55:34.560Z,2.75
2018-03-04T05:58:02.823Z,2.72
2018-03-04T06:00:31.083Z,2.58
2018-03-04T06:02:59.350Z,2.43
2018-03-04T06:05:27.606Z,2.71
2018-03-04T06:07:56.639Z,2.69
2018-03-04T06:10:24.905Z,3.26
2018-03-04T06:12:53.940Z,3.09
2018-03-04T06:15:22.192Z,3.11
2018-03-04T06:17:51.239Z,3.23
2018-03-04T06:20:19.499Z,3.23
2018-03-04T06:22:47.771Z,2.96
2018-03-04T06:25:16.800Z,3.06
2018-03-04T06:27:45.066Z,3.15
2018-03-04T06:30:14.092Z,3.13
2018-03-04T06:32:42.368Z,3.24
2018-03-04T06:35:10.627Z,3.33
2018-03-04T06:37:38.895Z,3.41
2018-03-04T06:40:07.155Z,3.56
2018-03-04T06:42:35.423Z,3.53
2018-03-04T06:45:03.687Z,3.81
2018-03-04T06:47:31.959Z,3.93
2018-03-04T06:50:01.262Z,4.37
2018-03-04T06:52:30.242Z,4.39
2018-03-04T06:54:58.508Z,4.61
2018-03-04T06:57:26.784Z,4.49
2018-03-04T06:59:56.719Z,4.72
2018-03-04T07:02:24.991Z,4.43
2018-03-04T07:04:54.026Z,4.40
2018-03-04T07:07:22.295Z,4.39
2018-03-04T07:09:51.332Z,4.64
2018-03-04T07:12:19.607Z,4.78
2018-03-04T07:14:47.868Z,4.75
2018-03-04T07:17:16.910Z,5.15
2018-03-04T07:19:45.175Z,4.95
2018-03-04T07:22:14.218Z,5.11
2018-03-04T07:24:42.483Z,5.37
2018-03-04T07:27:10.747Z,5.43
2018-03-04T07:29:39.822Z,5.90
2018-03-04T07:32:08.795Z,6.24
2018-03-04T07:34:37.050Z,6.24
2018-03-04T07:37:06.080Z,6.28
2018-03-04T07:39:34.327Z,6.40
2018-03-04T07:42:02.596Z,6.48
2018-03-04T07:44:30.862Z,6.42
2018-03-04T07:46:59.139Z,6.03
2018-03-04T07:49:27.391Z,5.54
2018-03-04T07:51:55.655Z,5.53
2018-03-04T07:54:23.907Z,5.25
2018-03-04T07:56:52.171Z,5.10
2018-03-04T07:59:20.423Z,5.03
2018-03-04T08:01:49.503Z,5.24
2018-03-04T08:04:18.515Z,5.55
2018-03-04T08:06:46.780Z,5.12
2018-03-04T08:09:15.798Z,5.40
2018-03-04T08:11:44.076Z,5.51
2018-03-04T08:14:13.100Z,5.64
2018-03-04T08:16:41.352Z,5.37
2018-03-04T08:19:10.384Z,5.65
2018-03-04T08:21:38.640Z,5.87
2018-03-04T08:24:07.673Z,5.61
2018-03-04T08:26:54.640Z,5.91
2018-03-04T08:29:22.895Z,6.23
2018-03-04T08:31:51.163Z,6.53
2018-03-04T08:34:19.423Z,6.59
2018-03-04T08:36:47.677Z,6.40
2018-03-04T08:39:15.939Z,6.23
2018-03-04T08:41:44.195Z,5.71
2018-03-04T08:44:13.234Z,5.36
2018-03-04T08:46:41.495Z,5.73
2018-03-04T08:49:10.522Z,5.48
2018-03-04T08:51:38.774Z,6.09
2018-03-04T08:54:07.039Z,6.08
2018-03-04T08:56:35.308Z,6.71
2018-03-04T08:59:03.568Z,6.25
2018-03-04T09:01:31.831Z,6.97
2018-03-04T09:04:00.916Z,7.18
2018-03-04T09:06:29.135Z,7.00
2018-03-04T09:08:58.178Z,7.29
2018-03-04T09:11:26.433Z,6.86
2018-03-04T09:13:55.513Z,6.83
2018-03-04T09:16:23.722Z,7.30
2018-03-04T09:18:52.755Z,7.63
2018-03-04T09:21:21.011Z,7.57
2018-03-04T09:23:50.047Z,7.35
2018-03-04T09:26:21.600Z,7.34
2018-03-04T09:28:50.626Z,6.30
2018-03-04T09:31:18.890Z,6.39
2018-03-04T09:33:47.922Z,6.06
2018-03-04T09:36:16.183Z,5.87
2018-03-04T09:38:45.211Z,5.92
2018-03-04T09:41:13.459Z,5.78
2018-03-04T09:43:42.208Z,6.03
2018-03-04T09:46:10.459Z,6.64
2018-03-04T09:48:41.436Z,7.41
2018-03-04T09:51:09.688Z,6.91
2018-03-04T09:53:37.959Z,7.24
2018-03-04T09:56:08.127Z,7.41
2018-03-04T09:58:37.176Z,7.61
2018-03-04T10:01:05.431Z,7.57
2018-03-04T10:03:33.700Z,6.91
2018-03-04T10:06:02.719Z,6.85
2018-03-04T10:08:31.747Z,6.66
2018-03-04T10:11:00.815Z,6.39
2018-03-04T10:13:29.083Z,6.05
2018-03-04T10:15:57.336Z,5.94
2018-03-04T10:18:25.600Z,5.82
2018-03-04T10:20:53.849Z,5.88
2018-03-04T10:23:22.120Z,6.03
2018-03-04T10:25:50.375Z,5.18
2018-03-04T10:28:18.644Z,5.12
2018-03-04T10:30:48.240Z,4.98
2018-03-04T10:33:16.499Z,5.59
2018-03-04T10:35:54.659Z,5.87
2018-03-04T10:38:22.915Z,6.21
2018-03-04T10:40:51.167Z,6.83
2018-03-04T10:43:29.343Z,7.16
2018-03-04T10:46:14.893Z,7.07
2018-03-04T10:48:43.147Z,6.99
2018-03-04T10:51:12.172Z,7.29
2018-03-04T10:54:00.475Z,7.49
2018-03-04T10:56:32.302Z,7.69
2018-03-04T10:59:01.511Z,7.79
2018-03-04T11:04:45.293Z,7.56
2018-03-04T11:07:14.312Z,7.95
2018-03-04T11:09:42.640Z,7.67
2018-03-04T11:12:10.843Z,8.00
2018-03-04T11:14:39.103Z,7.85
2018-03-04T11:17:07.415Z,8.55
2018-03-04T11:19:38.632Z,8.26
2018-03-04T11:22:06.891Z,7.86
2018-03-04T11:24:35.924Z,7.30
2018-03-04T11:27:04.184Z,7.46
2018-03-04T11:29:33.211Z,7.21
2018-03-04T11:32:01.473Z,7.16
2018-03-04T11:34:30.512Z,7.55
2018-03-04T11:36:58.763Z,7.52
2018-03-04T11:39:27.795Z,6.95
2018-03-04T11:41:56.048Z,6.85
2018-03-04T11:44:24.315Z,6.36
2018-03-04T11:46:52.576Z,6.71
2018-03-04T11:49:20.843Z,6.38
2018-03-04T11:51:49.107Z,6.33
2018-03-04T11:54:18.151Z,6.17
2018-03-04T11:56:46.400Z,6.47
2018-03-04T11:59:14.667Z,5.96
2018-03-04T12:01:42.923Z,5.84
2018-03-04T12:04:11.200Z,6.47
2018-03-04T12:06:39.458Z,6.59
2018-03-04T12:09:08.492Z,6.69
2018-03-04T12:11:36.747Z,7.34
2018-03-04T12:14:05.016Z,7.64
2018-03-04T12:16:33.287Z,7.88
2018-03-04T12:19:01.552Z,8.61
2018-03-04T12:21:29.808Z,8.83
2018-03-04T12:23:58.912Z,8.85
2018-03-04T12:26:27.879Z,8.67
2018-03-04T12:28:56.147Z,8.70
2018-03-04T12:31:24.408Z,8.88
2018-03-04T12:33:53.440Z,9.47
2018-03-04T12:36:21.696Z,9.40
2018-03-04T12:38:50.732Z,9.59
2018-03-04T12:41:18.999Z,9.48
2018-03-04T12:43:48.040Z,10.02
2018-03-04T12:46:16.293Z,9.98
2018-03-04T12:48:44.563Z,10.15
2018-03-04T12:51:13.593Z,9.68
2018-03-04T12:53:41.870Z,9.85
2018-03-04T12:56:10.904Z,9.32
2018-03-04T12:58:39.175Z,8.45
2018-03-04T13:01:07.440Z,8.40
2018-03-04T13:03:36.464Z,8.39
2018-03-04T13:06:04.735Z,8.47
2018-03-04T13:08:33.760Z,8.27
2018-03-04T13:11:02.028Z,8.11
2018-03-04T13:13:31.943Z,8.12
2018-03-04T13:16:00.215Z,8.26
2018-03-04T13:18:28.484Z,8.55
2018-03-04T13:20:56.750Z,8.04
2018-03-04T13:23:25.012Z,7.86
2018-03-04T13:25:54.047Z,7.95
2018-03-04T13:28:22.302Z,8.11
2018-03-04T13:30:51.347Z,7.19
2018-03-04T13:33:19.607Z,6.56
2018-03-04T13:35:48.648Z,5.86
2018-03-04T13:38:16.903Z,6.28
2018-03-04T13:40:45.927Z,6.06
2018-03-04T13:43:14.187Z,6.09
2018-03-04T13:45:43.216Z,6.01
2018-03-04T13:48:11.471Z,6.25
2018-03-04T13:50:39.736Z,6.37
2018-03-04T13:53:07.991Z,6.05
2018-03-04T13:55:36.255Z,6.13
2018-03-04T13:58:05.283Z,5.86
2018-03-04T14:00:33.547Z,5.80
2018-03-04T14:03:02.563Z,6.21
2018-03-04T14:05:30.853Z,6.46
2018-03-04T14:07:59.139Z,7.22
2018-03-04T14:10:28.168Z,7.54
2018-03-04T14:12:56.428Z,7.61
2018-03-04T14:15:25.459Z,8.10
2018-03-04T14:17:53.723Z,8.34
2018-03-04T14:20:21.999Z,8.73
2018-03-04T14:22:50.255Z,9.54
2018-03-04T14:25:18.535Z,10.04
2018-03-04T14:27:46.799Z,10.37
2018-03-04T14:30:15.068Z,10.41
2018-03-04T14:32:44.095Z,10.12
2018-03-04T14:35:12.364Z,10.42
2018-03-04T14:37:41.389Z,10.56
2018-03-04T14:40:09.656Z,10.51
2018-03-04T14:42:38.682Z,10.45
2018-03-04T14:45:06.947Z,9.85
2018-03-04T14:47:35.981Z,10.44
2018-03-04T14:50:04.488Z,10.37
2018-03-04T14:52:32.753Z,10.44
2018-03-04T14:55:01.023Z,10.66
2018-03-04T14:57:30.046Z,9.82
2018-03-04T14:59:58.319Z,10.20
2018-03-04T15:02:27.347Z,10.03
2018-03-04T15:04:55.635Z,9.65
2018-03-04T15:07:23.892Z,9.75
2018-03-04T15:09:52.923Z,9.63
2018-03-04T15:12:21.287Z,9.53
2018-03-04T15:14:49.567Z,9.48
2018-03-04T15:17:17.828Z,9.58
2018-03-04T15:19:46.096Z,9.50
2018-03-04T15:22:14.356Z,9.41
2018-03-04T15:24:42.624Z,9.61
2018-03-04T15:27:10.884Z,9.07
2018-03-04T15:29:39.162Z,9.25
2018-03-04T15:32:07.423Z,9.64
2018-03-04T15:34:35.696Z,9.16
2018-03-04T15:37:03.959Z,9.19
2018-03-04T15:39:32.223Z,9.05
2018-03-04T15:42:00.505Z,9.06
2018-03-04T15:44:28.788Z,9.12
2018-03-04T15:46:57.059Z,8.81
2018-03-04T15:49:25.324Z,8.98
2018-03-04T15:51:54.359Z,8.71
2018-03-04T15:54:24.571Z,8.60
2018-03-04T15:56:53.595Z,8.54
2018-03-04T15:59:21.859Z,8.64
2018-03-04T16:01:50.891Z,8.40
2018-03-04T16:04:21.116Z,8.47
2018-03-04T16:06:49.384Z,8.57
2018-03-04T16:09:19.312Z,8.61
2018-03-04T16:11:51.408Z,8.57
2018-03-04T16:14:19.675Z,7.81
2018-03-04T16:16:48.712Z,7.69
2018-03-04T16:19:16.962Z,7.99
2018-03-04T16:21:45.997Z,7.71
2018-03-04T16:24:14.256Z,8.22
2018-03-04T16:26:43.282Z,8.17
2018-03-04T16:29:11.543Z,7.96
2018-03-04T16:31:39.807Z,7.72
2018-03-04T16:34:08.072Z,7.79
2018-03-04T16:36:36.339Z,7.59
2018-03-04T16:39:04.595Z,7.15
2018-03-04T16:41:32.887Z,6.71
2018-03-04T16:44:02.819Z,6.65
2018-03-04T16:46:33.403Z,6.93
2018-03-04T16:49:01.659Z,7.38
2018-03-04T16:51:30.702Z,7.21
2018-03-04T16:53:58.955Z,7.42
2018-03-04T16:56:27.987Z,7.79
2018-03-04T16:58:56.298Z,8.13
2018-03-04T17:01:26.200Z,8.17
2018-03-04T17:03:54.468Z,8.08
2018-03-04T17:06:24.407Z,8.08
2018-03-04T17:09:05.120Z,8.12
2018-03-04T17:11:37.486Z,8.12
2018-03-04T17:14:06.676Z,8.15
2018-03-04T17:16:34.972Z,7.73
2018-03-04T17:19:03.231Z,8.17
2018-03-04T17:21:31.492Z,8.23
2018-03-04T17:23:59.752Z,8.36
2018-03-04T17:26:28.028Z,8.17
2018-03-04T17:28:56.305Z,8.12
2018-03-04T17:31:25.348Z,8.17
2018-03-04T17:33:53.615Z,8.17
2018-03-04T17:36:21.888Z,8.31
2018-03-04T17:38:50.152Z,8.04
2018-03-04T17:41:18.419Z,7.83
2018-03-04T17:43:46.680Z,7.42
2018-03-04T17:46:14.948Z,7.74
2018-03-04T17:48:43.215Z,7.78
2018-03-04T17:51:12.248Z,7.68
2018-03-04T17:53:40.515Z,7.79
2018-03-04T17:56:09.539Z,7.13
2018-03-04T17:58:37.800Z,6.97
2018-03-04T18:01:06.074Z,7.08
2018-03-04T18:03:34.392Z,7.43
2018-03-04T18:06:02.592Z,7.75
2018-03-04T18:08:30.879Z,7.23
2018-03-04T18:10:59.144Z,6.87
2018-03-04T18:13:28.186Z,7.25
2018-03-04T18:15:56.435Z,7.35
2018-03-04T18:18:25.471Z,7.34
2018-03-04T18:20:53.767Z,7.24
2018-03-04T18:23:22.031Z,7.16
2018-03-04T18:25:51.059Z,7.55
2018-03-04T18:28:19.335Z,7.69
2018-03-04T18:30:47.799Z,7.86
2018-03-04T18:33:16.086Z,7.61
2018-03-04T18:35:44.364Z,7.54
2018-03-04T18:38:12.627Z,7.76
2018-03-04T18:40:40.896Z,7.69
2018-03-04T18:43:09.160Z,7.91
2018-03-04T18:45:38.184Z,8.15
2018-03-04T18:48:06.459Z,8.10
2018-03-04T18:50:35.483Z,8.26
2018-03-04T18:53:03.748Z,8.28
2018-03-04T18:55:32.772Z,8.03
2018-03-04T18:58:01.041Z,8.17
2018-03-04T19:00:30.067Z,7.66
2018-03-04T19:02:58.359Z,7.75
2018-03-04T19:05:26.620Z,7.54
2018-03-04T19:07:55.640Z,7.38
2018-03-04T19:10:23.923Z,7.32
2018-03-04T19:12:52.946Z,7.31
2018-03-04T19:15:21.323Z,7.27
2018-03-04T19:17:49.584Z,7.18
2018-03-04T19:20:17.848Z,7.10
2018-03-04T19:22:46.108Z,7.25
2018-03-04T19:25:14.376Z,7.26
2018-03-04T19:27:42.636Z,7.52
2018-03-04T19:30:10.895Z,7.18
2018-03-04T19:32:39.163Z,7.03
2018-03-04T19:35:07.428Z,7.10
2018-03-04T19:37:36.451Z,7.05
2018-03-04T19:40:04.711Z,7.20
2018-03-04T19:42:33.750Z,7.44
2018-03-04T19:45:02.004Z,7.28
2018-03-04T19:47:31.035Z,7.33
2018-03-04T19:49:59.337Z,7.30
2018-03-04T19:52:27.599Z,7.24
2018-03-04T19:54:55.863Z,6.85
2018-03-04T19:57:24.120Z,7.10
2018-03-04T19:59:52.407Z,7.65
2018-03-04T20:02:20.664Z,7.44
2018-03-04T20:04:48.932Z,7.32
2018-03-04T20:07:17.952Z,7.61
2018-03-04T20:09:46.214Z,7.45
2018-03-04T20:12:14.469Z,7.57
2018-03-04T20:14:42.740Z,7.78
2018-03-04T20:17:11.009Z,7.95
2018-03-04T20:19:39.704Z,7.20
2018-03-04T20:22:07.965Z,6.97
2018-03-04T20:24:36.227Z,7.30
2018-03-04T20:27:04.491Z,7.34
2018-03-04T20:29:32.760Z,7.41
2018-03-04T20:32:01.076Z,7.73
2018-03-04T20:34:29.344Z,8.03
2018-03-04T20:36:57.602Z,7.95
2018-03-04T20:39:26.627Z,8.17
2018-03-04T20:41:54.892Z,7.87
2018-03-04T20:44:23.157Z,7.93
2018-03-04T20:46:51.436Z,8.18
2018-03-04T20:49:19.719Z,7.98
2018-03-04T20:51:47.991Z,7.95
2018-03-04T20:54:16.249Z,7.90
2018-03-04T20:56:45.290Z,8.28
2018-03-04T20:59:13.548Z,8.47
2018-03-04T21:01:41.842Z,8.58
2018-03-04T21:04:10.107Z,8.69
2018-03-04T21:06:39.155Z,8.99
2018-03-04T21:09:07.411Z,9.15
2018-03-04T21:11:36.462Z,9.13
2018-03-04T21:14:04.715Z,8.72
2018-03-04T21:16:32.971Z,8.22
2018-03-04T21:19:01.239Z,8.62
2018-03-04T21:21:29.504Z,8.56
2018-03-04T21:23:57.764Z,8.43
2018-03-04T21:26:26.039Z,8.22
2018-03-04T21:28:55.065Z,8.54
2018-03-04T21:31:23.327Z,8.83
2018-03-04T21:33:51.592Z,8.99
2018-03-04T21:36:19.918Z,8.80
2018-03-04T21:38:48.127Z,9.36
2018-03-04T21:41:16.413Z,9.51
2018-03-04T21:43:44.663Z,9.69
2018-03-04T21:46:12.937Z,9.46
2018-03-04T21:48:41.200Z,9.67
2018-03-04T21:51:09.468Z,9.03
2018-03-04T21:53:37.727Z,8.89
2018-03-04T21:56:06.784Z,9.11
2018-03-04T21:58:35.048Z,9.48
2018-03-04T22:01:03.340Z,9.36
2018-03-04T22:03:31.604Z,9.30
2018-03-04T22:06:00.644Z,9.65
2018-03-04T22:08:28.925Z,9.76
2018-03-04T22:10:57.183Z,9.31
2018-03-04T22:13:26.900Z,9.31
2018-03-04T22:15:55.934Z,9.33
2018-03-04T22:18:24.200Z,9.51
2018-03-04T22:20:53.236Z,9.31
2018-03-04T22:23:21.494Z,9.20
2018-03-04T22:25:50.521Z,8.98
2018-03-04T22:28:18.792Z,9.33
2018-03-04T22:30:47.812Z,9.15
2018-03-04T22:33:16.080Z,9.55
2018-03-04T22:35:45.124Z,9.47
2018-03-04T22:38:13.397Z,9.53
2018-03-04T22:40:41.656Z,9.53
2018-03-04T22:43:09.950Z,9.55
2018-03-04T22:45:38.977Z,9.65
2018-03-04T22:48:07.247Z,9.46
2018-03-04T22:50:36.283Z,8.96
2018-03-04T22:53:04.558Z,9.03
2018-03-04T22:55:33.576Z,8.79
2018-03-04T22:58:01.840Z,9.10
2018-03-04T23:00:30.873Z,9.48
2018-03-04T23:02:59.143Z,9.42
2018-03-04T23:05:27.404Z,9.15
2018-03-04T23:07:55.668Z,8.84
2018-03-04T23:10:23.933Z,8.73
2018-03-04T23:12:52.198Z,8.99
2018-03-04T23:15:21.225Z,8.77
2018-03-04T23:17:49.495Z,9.15
2018-03-04T23:20:17.756Z,8.87
2018-03-04T23:22:46.029Z,9.02
2018-03-04T23:25:14.293Z,8.69
2018-03-04T23:27:42.561Z,8.50
2018-03-04T23:30:10.823Z,8.71
2018-03-04T23:32:39.874Z,9.18
2018-03-04T23:35:09.027Z,9.34
2018-03-04T23:37:37.299Z,9.49
2018-03-04T23:40:05.561Z,9.52
2018-03-04T23:42:33.828Z,8.89
2018-03-04T23:45:02.084Z,8.84
2018-03-04T23:47:30.359Z,9.36
2018-03-04T23:49:58.630Z,8.84
2018-03-04T23:52:26.900Z,8.66
2018-03-04T23:54:55.924Z,9.14
2018-03-04T23:57:24.199Z,9.39
2018-03-04T23:59:52.455Z,8.92
